sensor_id;sensor_type;location;lat;lon;timestamp;temperature;humidity
6078;DHT22;3067;49.470;10.394;2024-01-15T00:01:07;-4.90;75.50
6078;DHT22;3067;49.470;10.394;2024-01-15T00:03:35;-4.80;75.50
6078;DHT22;3067;49.470;10.394;2024-01-15T00:06:03;-4.90;76.10
6078;DHT22;3067;49.470;10.394;2024-01-15T00:08:30;-4.80;76.00
6078;DHT22;3067;49.470;10.394;2024-01-15T00:10:57;-4.80;76.00
6078;DHT22;3067;49.470;10.394;2024-01-15T00:13:24;-4.80;75.80
6078;DHT22;3067;49.470;10.394;2024-01-15T00:15:51;-4.80;75.90
6078;DHT22;3067;49.470;10.394;2024-01-15T00:18:18;-4.70;75.90
6078;DHT22;3067;49.470;10.394;2024-01-15T00:20:46;-4.70;76.00
6078;DHT22;3067;49.470;10.394;2024-01-15T00:23:13;-4.60;75.90
6078;DHT22;3067;49.470;10.394;2024-01-15T00:25:41;-4.60;76.00
6078;DHT22;3067;49.470;10.394;2024-01-15T00:28:08;-4.60;75.80
6078;DHT22;3067;49.470;10.394;2024-01-15T00:30:35;-4.60;76.10
6078;DHT22;3067;49.470;10.394;2024-01-15T00:33:03;-4.60;76.20
6078;DHT22;3067;49.470;10.394;2024-01-15T00:35:30;-4.60;76.30
6078;DHT22;3067;49.470;10.394;2024-01-15T00:37:58;-4.60;76.30
6078;DHT22;3067;49.470;10.394;2024-01-15T00:40:25;-4.60;76.40
6078;DHT22;3067;49.470;10.394;2024-01-15T00:42:53;-4.60;76.70
6078;DHT22;3067;49.470;10.394;2024-01-15T00:45:20;-4.60;77.00
6078;DHT22;3067;49.470;10.394;2024-01-15T00:47:47;-4.60;77.40
6078;DHT22;3067;49.470;10.394;2024-01-15T00:50:14;-4.60;77.40
6078;DHT22;3067;49.470;10.394;2024-01-15T00:52:41;-4.60;77.20
6078;DHT22;3067;49.470;10.394;2024-01-15T00:55:09;-4.50;77.20
6078;DHT22;3067;49.470;10.394;2024-01-15T00:57:37;-4.50;77.20
6078;DHT22;3067;49.470;10.394;2024-01-15T01:00:05;-4.40;77.20
6078;DHT22;3067;49.470;10.394;2024-01-15T01:02:33;-4.40;77.20
6078;DHT22;3067;49.470;10.394;2024-01-15T01:05:00;-4.40;77.60
6078;DHT22;3067;49.470;10.394;2024-01-15T01:07:27;-4.40;77.80
6078;DHT22;3067;49.470;10.394;2024-01-15T01:09:54;-4.30;77.70
6078;DHT22;3067;49.470;10.394;2024-01-15T01:12:23;-4.30;77.80
6078;DHT22;3067;49.470;10.394;2024-01-15T01:14:50;-4.30;77.80
6078;DHT22;3067;49.470;10.394;2024-01-15T01:17:17;-4.30;78.00
6078;DHT22;3067;49.470;10.394;2024-01-15T01:19:44;-4.20;78.00
6078;DHT22;3067;49.470;10.394;2024-01-15T01:22:11;-4.30;78.10
6078;DHT22;3067;49.470;10.394;2024-01-15T01:24:38;-4.20;78.30
6078;DHT22;3067;49.470;10.394;2024-01-15T01:27:05;-4.20;78.30
6078;DHT22;3067;49.470;10.394;2024-01-15T01:29:34;-4.20;78.60
6078;DHT22;3067;49.470;10.394;2024-01-15T01:32:01;-4.20;78.80
6078;DHT22;3067;49.470;10.394;2024-01-15T01:34:28;-4.20;79.10
6078;DHT22;3067;49.470;10.394;2024-01-15T01:36:55;-4.20;79.20
6078;DHT22;3067;49.470;10.394;2024-01-15T01:39:22;-4.20;79.30
6078;DHT22;3067;49.470;10.394;2024-01-15T01:41:49;-4.10;79.20
6078;DHT22;3067;49.470;10.394;2024-01-15T01:44:16;-4.10;79.10
6078;DHT22;3067;49.470;10.394;2024-01-15T01:46:45;-4.10;78.90
6078;DHT22;3067;49.470;10.394;2024-01-15T01:49:12;-4.10;78.90
6078;DHT22;3067;49.470;10.394;2024-01-15T01:51:39;-4.00;78.70
6078;DHT22;3067;49.470;10.394;2024-01-15T01:54:08;-4.00;78.60
6078;DHT22;3067;49.470;10.394;2024-01-15T01:56:38;-4.00;78.60
6078;DHT22;3067;49.470;10.394;2024-01-15T01:59:06;-4.00;78.90
6078;DHT22;3067;49.470;10.394;2024-01-15T02:01:34;-4.00;79.20
6078;DHT22;3067;49.470;10.394;2024-01-15T02:04:03;-4.00;79.80
6078;DHT22;3067;49.470;10.394;2024-01-15T02:06:31;-4.00;80.10
6078;DHT22;3067;49.470;10.394;2024-01-15T02:08:58;-4.00;80.40
6078;DHT22;3067;49.470;10.394;2024-01-15T02:11:25;-4.00;80.70
6078;DHT22;3067;49.470;10.394;2024-01-15T02:13:52;-4.00;80.70
6078;DHT22;3067;49.470;10.394;2024-01-15T02:16:19;-4.00;80.40
6078;DHT22;3067;49.470;10.394;2024-01-15T02:18:46;-3.90;80.20
6078;DHT22;3067;49.470;10.394;2024-01-15T02:21:15;-3.80;80.10
6078;DHT22;3067;49.470;10.394;2024-01-15T02:23:44;-3.80;79.60
6078;DHT22;3067;49.470;10.394;2024-01-15T02:26:11;-3.80;79.30
6078;DHT22;3067;49.470;10.394;2024-01-15T02:28:39;-3.80;78.80
6078;DHT22;3067;49.470;10.394;2024-01-15T02:31:07;-3.80;78.80
6078;DHT22;3067;49.470;10.394;2024-01-15T02:33:34;-3.80;79.70
6078;DHT22;3067;49.470;10.394;2024-01-15T02:36:01;-3.80;80.70
6078;DHT22;3067;49.470;10.394;2024-01-15T02:38:28;-3.80;80.50
6078;DHT22;3067;49.470;10.394;2024-01-15T02:40:57;-3.80;80.10
6078;DHT22;3067;49.470;10.394;2024-01-15T02:43:24;-3.80;79.90
6078;DHT22;3067;49.470;10.394;2024-01-15T02:45:51;-3.80;80.00
6078;DHT22;3067;49.470;10.394;2024-01-15T02:48:18;-3.80;79.90
6078;DHT22;3067;49.470;10.394;2024-01-15T02:50:45;-3.80;79.70
6078;DHT22;3067;49.470;10.394;2024-01-15T02:53:12;-3.80;79.70
6078;DHT22;3067;49.470;10.394;2024-01-15T02:55:39;-3.70;79.70
6078;DHT22;3067;49.470;10.394;2024-01-15T02:58:08;-3.70;79.80
6078;DHT22;3067;49.470;10.394;2024-01-15T03:00:35;-3.70;79.80
6078;DHT22;3067;49.470;10.394;2024-01-15T03:03:02;-3.60;79.80
6078;DHT22;3067;49.470;10.394;2024-01-15T03:05:29;-3.70;79.40
6078;DHT22;3067;49.470;10.394;2024-01-15T03:07:56;-3.60;79.00
6078;DHT22;3067;49.470;10.394;2024-01-15T03:10:23;-3.60;78.60
6078;DHT22;3067;49.470;10.394;2024-01-15T03:12:50;-3.60;79.00
6078;DHT22;3067;49.470;10.394;2024-01-15T03:15:18;-3.50;79.10
6078;DHT22;3067;49.470;10.394;2024-01-15T03:17:45;-3.50;79.60
6078;DHT22;3067;49.470;10.394;2024-01-15T03:20:13;-3.50;80.10
6078;DHT22;3067;49.470;10.394;2024-01-15T03:22:40;-3.60;80.20
6078;DHT22;3067;49.470;10.394;2024-01-15T03:25:07;-3.60;79.80
6078;DHT22;3067;49.470;10.394;2024-01-15T03:27:34;-3.60;79.80
6078;DHT22;3067;49.470;10.394;2024-01-15T03:30:01;-3.60;79.70
6078;DHT22;3067;49.470;10.394;2024-01-15T03:32:29;-3.60;79.70
6078;DHT22;3067;49.470;10.394;2024-01-15T03:34:56;-3.60;79.60
6078;DHT22;3067;49.470;10.394;2024-01-15T03:37:23;-3.60;79.60
6078;DHT22;3067;49.470;10.394;2024-01-15T03:39:50;-3.60;79.60
6078;DHT22;3067;49.470;10.394;2024-01-15T03:42:18;-3.60;79.50
6078;DHT22;3067;49.470;10.394;2024-01-15T03:44:45;-3.60;79.30
6078;DHT22;3067;49.470;10.394;2024-01-15T03:47:12;-3.60;79.20
6078;DHT22;3067;49.470;10.394;2024-01-15T03:49:40;-3.60;79.20
6078;DHT22;3067;49.470;10.394;2024-01-15T03:52:07;-3.50;79.00
6078;DHT22;3067;49.470;10.394;2024-01-15T03:54:34;-3.60;79.00
6078;DHT22;3067;49.470;10.394;2024-01-15T03:57:01;-3.60;79.00
6078;DHT22;3067;49.470;10.394;2024-01-15T03:59:28;-3.60;79.00
6078;DHT22;3067;49.470;10.394;2024-01-15T04:01:55;-3.60;78.90
6078;DHT22;3067;49.470;10.394;2024-01-15T04:04:22;-3.50;78.90
6078;DHT22;3067;49.470;10.394;2024-01-15T04:06:51;-3.50;78.70
6078;DHT22;3067;49.470;10.394;2024-01-15T04:09:18;-3.50;78.60
6078;DHT22;3067;49.470;10.394;2024-01-15T04:11:45;-3.40;78.40
6078;DHT22;3067;49.470;10.394;2024-01-15T04:14:12;-3.40;78.30
6078;DHT22;3067;49.470;10.394;2024-01-15T04:16:39;-3.40;78.10
6078;DHT22;3067;49.470;10.394;2024-01-15T04:19:07;-3.40;78.10
6078;DHT22;3067;49.470;10.394;2024-01-15T04:21:34;-3.40;78.10
6078;DHT22;3067;49.470;10.394;2024-01-15T04:24:02;-3.40;78.10
6078;DHT22;3067;49.470;10.394;2024-01-15T04:26:29;-3.40;78.20
6078;DHT22;3067;49.470;10.394;2024-01-15T04:28:56;-3.40;78.20
6078;DHT22;3067;49.470;10.394;2024-01-15T04:31:25;-3.40;78.10
6078;DHT22;3067;49.470;10.394;2024-01-15T04:33:52;-3.40;78.00
6078;DHT22;3067;49.470;10.394;2024-01-15T04:36:19;-3.30;78.00
6078;DHT22;3067;49.470;10.394;2024-01-15T04:38:46;-3.40;77.90
6078;DHT22;3067;49.470;10.394;2024-01-15T04:41:16;-3.40;77.80
6078;DHT22;3067;49.470;10.394;2024-01-15T04:43:43;-3.30;77.70
6078;DHT22;3067;49.470;10.394;2024-01-15T04:46:10;-3.20;77.60
6078;DHT22;3067;49.470;10.394;2024-01-15T04:48:37;-3.20;77.50
6078;DHT22;3067;49.470;10.394;2024-01-15T04:51:05;-3.20;77.50
6078;DHT22;3067;49.470;10.394;2024-01-15T04:53:32;-3.20;77.60
6078;DHT22;3067;49.470;10.394;2024-01-15T04:56:00;-3.20;77.40
6078;DHT22;3067;49.470;10.394;2024-01-15T04:58:28;-3.20;77.30
6078;DHT22;3067;49.470;10.394;2024-01-15T05:00:55;-3.20;77.20
6078;DHT22;3067;49.470;10.394;2024-01-15T05:03:22;-3.20;77.30
6078;DHT22;3067;49.470;10.394;2024-01-15T05:05:49;-3.20;77.20
6078;DHT22;3067;49.470;10.394;2024-01-15T05:08:16;-3.10;77.10
6078;DHT22;3067;49.470;10.394;2024-01-15T05:10:43;-3.20;77.10
6078;DHT22;3067;49.470;10.394;2024-01-15T05:13:10;-3.20;77.00
6078;DHT22;3067;49.470;10.394;2024-01-15T05:15:39;-3.20;77.20
6078;DHT22;3067;49.470;10.394;2024-01-15T05:18:06;-3.20;77.40
6078;DHT22;3067;49.470;10.394;2024-01-15T05:20:33;-3.20;77.40
6078;DHT22;3067;49.470;10.394;2024-01-15T05:23:00;-3.10;77.20
6078;DHT22;3067;49.470;10.394;2024-01-15T05:25:27;-3.10;77.20
6078;DHT22;3067;49.470;10.394;2024-01-15T05:27:54;-3.10;77.10
6078;DHT22;3067;49.470;10.394;2024-01-15T05:30:21;-3.10;77.20
6078;DHT22;3067;49.470;10.394;2024-01-15T05:32:50;-3.10;77.00
6078;DHT22;3067;49.470;10.394;2024-01-15T05:35:17;-3.10;77.00
6078;DHT22;3067;49.470;10.394;2024-01-15T05:37:45;-3.10;76.90
6078;DHT22;3067;49.470;10.394;2024-01-15T05:40:13;-3.10;77.20
6078;DHT22;3067;49.470;10.394;2024-01-15T05:42:40;-3.10;77.40
6078;DHT22;3067;49.470;10.394;2024-01-15T05:45:08;-3.10;77.30
6078;DHT22;3067;49.470;10.394;2024-01-15T05:47:35;-3.10;77.20
6078;DHT22;3067;49.470;10.394;2024-01-15T05:50:05;-3.10;77.30
6078;DHT22;3067;49.470;10.394;2024-01-15T05:52:32;-3.10;77.70
6078;DHT22;3067;49.470;10.394;2024-01-15T05:54:59;-3.20;77.90
6078;DHT22;3067;49.470;10.394;2024-01-15T05:57:26;-3.10;78.00
6078;DHT22;3067;49.470;10.394;2024-01-15T05:59:54;-3.10;77.70
6078;DHT22;3067;49.470;10.394;2024-01-15T06:02:21;-3.10;77.70
6078;DHT22;3067;49.470;10.394;2024-01-15T06:04:48;-3.10;77.60
6078;DHT22;3067;49.470;10.394;2024-01-15T06:07:16;-3.10;77.40
6078;DHT22;3067;49.470;10.394;2024-01-15T06:09:43;-3.10;77.50
6078;DHT22;3067;49.470;10.394;2024-01-15T06:12:10;-3.10;77.50
6078;DHT22;3067;49.470;10.394;2024-01-15T06:14:38;-3.10;77.50
6078;DHT22;3067;49.470;10.394;2024-01-15T06:17:06;-3.10;77.70
6078;DHT22;3067;49.470;10.394;2024-01-15T06:19:34;-3.10;77.80
6078;DHT22;3067;49.470;10.394;2024-01-15T06:22:01;-3.10;77.80
6078;DHT22;3067;49.470;10.394;2024-01-15T06:24:29;-3.10;77.90
6078;DHT22;3067;49.470;10.394;2024-01-15T06:26:56;-3.10;77.90
6078;DHT22;3067;49.470;10.394;2024-01-15T06:29:26;-3.10;78.00
6078;DHT22;3067;49.470;10.394;2024-01-15T06:31:53;-3.10;78.20
6078;DHT22;3067;49.470;10.394;2024-01-15T06:34:20;-3.10;78.50
6078;DHT22;3067;49.470;10.394;2024-01-15T06:36:47;-3.10;78.50
6078;DHT22;3067;49.470;10.394;2024-01-15T06:39:14;-3.00;78.40
6078;DHT22;3067;49.470;10.394;2024-01-15T06:41:43;-3.00;78.40
6078;DHT22;3067;49.470;10.394;2024-01-15T06:44:10;-3.00;78.10
6078;DHT22;3067;49.470;10.394;2024-01-15T06:46:42;-3.00;78.10
6078;DHT22;3067;49.470;10.394;2024-01-15T06:49:09;-3.00;78.20
6078;DHT22;3067;49.470;10.394;2024-01-15T06:51:36;-3.00;78.00
6078;DHT22;3067;49.470;10.394;2024-01-15T06:54:03;-3.00;78.20
6078;DHT22;3067;49.470;10.394;2024-01-15T06:56:31;-3.00;78.20
6078;DHT22;3067;49.470;10.394;2024-01-15T06:59:00;-3.00;78.20
6078;DHT22;3067;49.470;10.394;2024-01-15T07:01:27;-3.00;78.20
6078;DHT22;3067;49.470;10.394;2024-01-15T07:03:54;-2.90;78.20
6078;DHT22;3067;49.470;10.394;2024-01-15T07:06:21;-3.00;78.30
6078;DHT22;3067;49.470;10.394;2024-01-15T07:08:49;-2.90;78.10
6078;DHT22;3067;49.470;10.394;2024-01-15T07:11:16;-2.90;78.00
6078;DHT22;3067;49.470;10.394;2024-01-15T07:13:43;-2.90;78.00
6078;DHT22;3067;49.470;10.394;2024-01-15T07:16:12;-2.90;78.00
6078;DHT22;3067;49.470;10.394;2024-01-15T07:18:39;-2.90;77.90
6078;DHT22;3067;49.470;10.394;2024-01-15T07:21:06;-2.90;77.90
6078;DHT22;3067;49.470;10.394;2024-01-15T07:23:33;-2.90;77.90
6078;DHT22;3067;49.470;10.394;2024-01-15T07:26:00;-2.80;77.90
6078;DHT22;3067;49.470;10.394;2024-01-15T07:28:29;-2.80;77.60
6078;DHT22;3067;49.470;10.394;2024-01-15T07:30:56;-2.70;77.60
6078;DHT22;3067;49.470;10.394;2024-01-15T07:33:25;-2.70;77.50
6078;DHT22;3067;49.470;10.394;2024-01-15T07:35:52;-2.70;77.40
6078;DHT22;3067;49.470;10.394;2024-01-15T07:38:20;-2.70;77.50
6078;DHT22;3067;49.470;10.394;2024-01-15T07:40:47;-2.70;77.70
6078;DHT22;3067;49.470;10.394;2024-01-15T07:43:15;-2.70;77.90
6078;DHT22;3067;49.470;10.394;2024-01-15T07:45:42;-2.60;77.90
6078;DHT22;3067;49.470;10.394;2024-01-15T07:48:09;-2.60;78.00
6078;DHT22;3067;49.470;10.394;2024-01-15T07:50:37;-2.70;78.00
6078;DHT22;3067;49.470;10.394;2024-01-15T07:53:04;-2.70;78.20
6078;DHT22;3067;49.470;10.394;2024-01-15T07:55:32;-2.70;78.10
6078;DHT22;3067;49.470;10.394;2024-01-15T07:57:59;-2.70;78.30
6078;DHT22;3067;49.470;10.394;2024-01-15T08:00:27;-2.60;78.50
6078;DHT22;3067;49.470;10.394;2024-01-15T08:02:54;-2.60;78.40
6078;DHT22;3067;49.470;10.394;2024-01-15T08:05:21;-2.60;78.20
6078;DHT22;3067;49.470;10.394;2024-01-15T08:07:49;-2.60;78.30
6078;DHT22;3067;49.470;10.394;2024-01-15T08:10:17;-2.50;78.10
6078;DHT22;3067;49.470;10.394;2024-01-15T08:12:44;-2.50;78.10
6078;DHT22;3067;49.470;10.394;2024-01-15T08:15:11;-2.50;78.10
6078;DHT22;3067;49.470;10.394;2024-01-15T08:17:38;-2.50;78.10
6078;DHT22;3067;49.470;10.394;2024-01-15T08:20:06;-2.50;78.20
6078;DHT22;3067;49.470;10.394;2024-01-15T08:22:34;-2.50;78.40
6078;DHT22;3067;49.470;10.394;2024-01-15T08:25:02;-2.50;78.10
6078;DHT22;3067;49.470;10.394;2024-01-15T08:27:29;-2.40;78.10
6078;DHT22;3067;49.470;10.394;2024-01-15T08:29:57;-2.30;78.10
6078;DHT22;3067;49.470;10.394;2024-01-15T08:32:24;-2.30;77.90
6078;DHT22;3067;49.470;10.394;2024-01-15T08:34:51;-2.30;77.60
6078;DHT22;3067;49.470;10.394;2024-01-15T08:37:18;-2.30;77.90
6078;DHT22;3067;49.470;10.394;2024-01-15T08:39:46;-2.20;77.90
6078;DHT22;3067;49.470;10.394;2024-01-15T08:42:14;-2.20;77.60
6078;DHT22;3067;49.470;10.394;2024-01-15T08:44:41;-2.10;77.20
6078;DHT22;3067;49.470;10.394;2024-01-15T08:47:09;-2.10;77.20
6078;DHT22;3067;49.470;10.394;2024-01-15T08:49:36;-2.10;77.20
6078;DHT22;3067;49.470;10.394;2024-01-15T08:52:03;-2.10;77.10
6078;DHT22;3067;49.470;10.394;2024-01-15T08:54:30;-2.10;77.00
6078;DHT22;3067;49.470;10.394;2024-01-15T08:56:58;-2.10;77.10
6078;DHT22;3067;49.470;10.394;2024-01-15T08:59:26;-2.10;77.20
6078;DHT22;3067;49.470;10.394;2024-01-15T09:01:54;-2.00;76.80
6078;DHT22;3067;49.470;10.394;2024-01-15T09:04:23;-1.90;76.80
6078;DHT22;3067;49.470;10.394;2024-01-15T09:06:50;-1.90;76.90
6078;DHT22;3067;49.470;10.394;2024-01-15T09:09:17;-1.90;76.70
6078;DHT22;3067;49.470;10.394;2024-01-15T09:11:45;-1.90;76.60
6078;DHT22;3067;49.470;10.394;2024-01-15T09:14:12;-1.80;76.20
6078;DHT22;3067;49.470;10.394;2024-01-15T09:16:41;-1.90;76.40
6078;DHT22;3067;49.470;10.394;2024-01-15T09:19:08;-1.80;76.50
6078;DHT22;3067;49.470;10.394;2024-01-15T09:21:35;-1.80;76.60
6078;DHT22;3067;49.470;10.394;2024-01-15T09:24:05;-1.80;76.40
6078;DHT22;3067;49.470;10.394;2024-01-15T09:26:32;-1.80;76.50
6078;DHT22;3067;49.470;10.394;2024-01-15T09:28:59;-1.70;76.40
6078;DHT22;3067;49.470;10.394;2024-01-15T09:31:26;-1.70;76.00
6078;DHT22;3067;49.470;10.394;2024-01-15T09:33:55;-1.70;76.00
6078;DHT22;3067;49.470;10.394;2024-01-15T09:36:24;-1.70;76.20
6078;DHT22;3067;49.470;10.394;2024-01-15T09:38:51;-1.60;76.20
6078;DHT22;3067;49.470;10.394;2024-01-15T09:41:18;-1.70;76.80
6078;DHT22;3067;49.470;10.394;2024-01-15T09:43:46;-1.60;77.10
6078;DHT22;3067;49.470;10.394;2024-01-15T09:46:13;-1.60;77.60
6078;DHT22;3067;49.470;10.394;2024-01-15T09:48:40;-1.70;78.30
6078;DHT22;3067;49.470;10.394;2024-01-15T09:51:09;-1.70;78.70
6078;DHT22;3067;49.470;10.394;2024-01-15T09:53:37;-1.60;78.60
6078;DHT22;3067;49.470;10.394;2024-01-15T09:56:06;-1.70;78.20
6078;DHT22;3067;49.470;10.394;2024-01-15T09:58:33;-1.60;77.50
6078;DHT22;3067;49.470;10.394;2024-01-15T10:01:03;-1.50;76.90
6078;DHT22;3067;49.470;10.394;2024-01-15T10:03:30;-1.50;76.50
6078;DHT22;3067;49.470;10.394;2024-01-15T10:05:59;-1.50;76.40
6078;DHT22;3067;49.470;10.394;2024-01-15T10:08:28;-1.50;76.20
6078;DHT22;3067;49.470;10.394;2024-01-15T10:10:55;-1.40;75.70
6078;DHT22;3067;49.470;10.394;2024-01-15T10:13:22;-1.40;75.40
6078;DHT22;3067;49.470;10.394;2024-01-15T10:15:50;-1.40;75.70
6078;DHT22;3067;49.470;10.394;2024-01-15T10:18:17;-1.40;75.40
6078;DHT22;3067;49.470;10.394;2024-01-15T10:20:45;-1.50;75.20
6078;DHT22;3067;49.470;10.394;2024-01-15T10:23:12;-1.50;75.10
6078;DHT22;3067;49.470;10.394;2024-01-15T10:25:41;-1.40;75.30
6078;DHT22;3067;49.470;10.394;2024-01-15T10:28:08;-1.40;75.10
6078;DHT22;3067;49.470;10.394;2024-01-15T10:30:36;-1.50;75.70
6078;DHT22;3067;49.470;10.394;2024-01-15T10:33:04;-1.50;75.60
6078;DHT22;3067;49.470;10.394;2024-01-15T10:35:32;-1.50;75.90
6078;DHT22;3067;49.470;10.394;2024-01-15T10:38:00;-1.50;76.10
6078;DHT22;3067;49.470;10.394;2024-01-15T10:40:27;-1.50;76.20
6078;DHT22;3067;49.470;10.394;2024-01-15T10:42:56;-1.40;76.20
6078;DHT22;3067;49.470;10.394;2024-01-15T10:45:23;-1.30;75.90
6078;DHT22;3067;49.470;10.394;2024-01-15T10:47:50;-1.30;76.20
6078;DHT22;3067;49.470;10.394;2024-01-15T10:50:17;-1.30;76.00
6078;DHT22;3067;49.470;10.394;2024-01-15T10:52:45;-1.30;76.20
6078;DHT22;3067;49.470;10.394;2024-01-15T10:55:12;-1.20;75.80
6078;DHT22;3067;49.470;10.394;2024-01-15T10:57:40;-1.10;75.50
6078;DHT22;3067;49.470;10.394;2024-01-15T11:00:09;-1.10;75.70
6078;DHT22;3067;49.470;10.394;2024-01-15T11:02:40;-1.10;75.80
6078;DHT22;3067;49.470;10.394;2024-01-15T11:05:11;-1.10;75.90
6078;DHT22;3067;49.470;10.394;2024-01-15T11:07:39;-1.10;75.90
6078;DHT22;3067;49.470;10.394;2024-01-15T11:10:08;-1.10;75.70
6078;DHT22;3067;49.470;10.394;2024-01-15T11:12:55;-1.10;75.70
6078;DHT22;3067;49.470;10.394;2024-01-15T11:15:24;-1.10;75.40
6078;DHT22;3067;49.470;10.394;2024-01-15T11:17:58;-1.10;75.90
6078;DHT22;3067;49.470;10.394;2024-01-15T11:20:26;-1.00;75.50
6078;DHT22;3067;49.470;10.394;2024-01-15T11:22:53;-1.00;76.00
6078;DHT22;3067;49.470;10.394;2024-01-15T11:25:23;-1.00;75.60
6078;DHT22;3067;49.470;10.394;2024-01-15T11:27:51;-1.00;75.70
6078;DHT22;3067;49.470;10.394;2024-01-15T11:30:19;-1.00;75.40
6078;DHT22;3067;49.470;10.394;2024-01-15T11:32:48;-1.00;76.20
6078;DHT22;3067;49.470;10.394;2024-01-15T11:35:15;-1.00;76.50
6078;DHT22;3067;49.470;10.394;2024-01-15T11:37:57;-1.10;76.90
6078;DHT22;3067;49.470;10.394;2024-01-15T11:40:37;-1.10;77.80
6078;DHT22;3067;49.470;10.394;2024-01-15T11:43:05;-1.00;78.20
6078;DHT22;3067;49.470;10.394;2024-01-15T11:45:33;-1.00;77.80
6078;DHT22;3067;49.470;10.394;2024-01-15T11:48:14;-1.10;77.50
6078;DHT22;3067;49.470;10.394;2024-01-15T11:50:43;-1.10;77.60
6078;DHT22;3067;49.470;10.394;2024-01-15T11:53:27;-1.10;77.90
6078;DHT22;3067;49.470;10.394;2024-01-15T11:55:58;-1.10;77.70
6078;DHT22;3067;49.470;10.394;2024-01-15T11:58:26;-1.10;77.90
6078;DHT22;3067;49.470;10.394;2024-01-15T12:00:53;-1.00;77.50
6078;DHT22;3067;49.470;10.394;2024-01-15T12:03:23;-1.00;77.30
6078;DHT22;3067;49.470;10.394;2024-01-15T12:05:50;-1.00;77.50
6078;DHT22;3067;49.470;10.394;2024-01-15T12:08:21;-1.10;77.70
6078;DHT22;3067;49.470;10.394;2024-01-15T12:10:49;-1.00;77.70
6078;DHT22;3067;49.470;10.394;2024-01-15T12:13:17;-1.10;77.80
6078;DHT22;3067;49.470;10.394;2024-01-15T12:15:45;-1.00;77.40
6078;DHT22;3067;49.470;10.394;2024-01-15T12:18:13;-1.00;77.30
6078;DHT22;3067;49.470;10.394;2024-01-15T12:20:43;-1.00;76.70
6078;DHT22;3067;49.470;10.394;2024-01-15T12:23:12;-1.00;76.30
6078;DHT22;3067;49.470;10.394;2024-01-15T12:25:40;-1.00;76.60
6078;DHT22;3067;49.470;10.394;2024-01-15T12:28:07;-1.00;76.40
6078;DHT22;3067;49.470;10.394;2024-01-15T12:30:35;-1.00;76.50
6078;DHT22;3067;49.470;10.394;2024-01-15T12:33:03;-1.00;77.00
6078;DHT22;3067;49.470;10.394;2024-01-15T12:35:31;-1.00;77.20
6078;DHT22;3067;49.470;10.394;2024-01-15T12:38:01;-1.00;77.50
6078;DHT22;3067;49.470;10.394;2024-01-15T12:40:30;-1.10;78.00
6078;DHT22;3067;49.470;10.394;2024-01-15T12:42:57;-1.10;78.00
6078;DHT22;3067;49.470;10.394;2024-01-15T12:45:24;-1.10;77.60
6078;DHT22;3067;49.470;10.394;2024-01-15T12:47:52;-1.10;77.60
6078;DHT22;3067;49.470;10.394;2024-01-15T12:50:19;-1.10;77.80
6078;DHT22;3067;49.470;10.394;2024-01-15T12:52:46;-1.00;77.60
6078;DHT22;3067;49.470;10.394;2024-01-15T12:55:15;-1.00;77.20
6078;DHT22;3067;49.470;10.394;2024-01-15T12:57:42;-0.90;76.90
6078;DHT22;3067;49.470;10.394;2024-01-15T13:00:11;-0.90;76.70
6078;DHT22;3067;49.470;10.394;2024-01-15T13:02:39;-1.00;76.90
6078;DHT22;3067;49.470;10.394;2024-01-15T13:05:08;-1.00;77.30
6078;DHT22;3067;49.470;10.394;2024-01-15T13:07:36;-1.10;77.80
6078;DHT22;3067;49.470;10.394;2024-01-15T13:10:04;-1.10;77.90
6078;DHT22;3067;49.470;10.394;2024-01-15T13:12:33;-1.10;78.60
6078;DHT22;3067;49.470;10.394;2024-01-15T13:15:00;-1.10;78.40
6078;DHT22;3067;49.470;10.394;2024-01-15T13:17:29;-1.10;78.60
6078;DHT22;3067;49.470;10.394;2024-01-15T13:19:56;-1.10;79.30
6078;DHT22;3067;49.470;10.394;2024-01-15T13:22:23;-1.10;79.40
6078;DHT22;3067;49.470;10.394;2024-01-15T13:24:55;-1.10;79.50
6078;DHT22;3067;49.470;10.394;2024-01-15T13:27:22;-1.10;79.30
6078;DHT22;3067;49.470;10.394;2024-01-15T13:29:50;-1.10;79.60
6078;DHT22;3067;49.470;10.394;2024-01-15T13:32:22;-1.10;80.10
6078;DHT22;3067;49.470;10.394;2024-01-15T13:34:51;-1.20;80.30
6078;DHT22;3067;49.470;10.394;2024-01-15T13:37:18;-1.20;80.20
6078;DHT22;3067;49.470;10.394;2024-01-15T13:39:48;-1.20;80.30
6078;DHT22;3067;49.470;10.394;2024-01-15T13:42:15;-1.20;80.20
6078;DHT22;3067;49.470;10.394;2024-01-15T13:44:42;-1.10;79.70
6078;DHT22;3067;49.470;10.394;2024-01-15T13:47:11;-1.10;79.10
6078;DHT22;3067;49.470;10.394;2024-01-15T13:49:38;-1.10;78.70
6078;DHT22;3067;49.470;10.394;2024-01-15T13:52:05;-1.00;78.00
6078;DHT22;3067;49.470;10.394;2024-01-15T13:54:33;-0.90;77.20
6078;DHT22;3067;49.470;10.394;2024-01-15T13:57:00;-0.90;76.80
6078;DHT22;3067;49.470;10.394;2024-01-15T13:59:27;-0.90;76.10
6078;DHT22;3067;49.470;10.394;2024-01-15T14:01:54;-0.90;76.40
6078;DHT22;3067;49.470;10.394;2024-01-15T14:04:23;-0.80;75.60
6078;DHT22;3067;49.470;10.394;2024-01-15T14:06:50;-0.80;75.10
6078;DHT22;3067;49.470;10.394;2024-01-15T14:09:17;-0.70;74.90
6078;DHT22;3067;49.470;10.394;2024-01-15T14:11:44;-0.80;74.70
6078;DHT22;3067;49.470;10.394;2024-01-15T14:14:12;-0.80;74.20
6078;DHT22;3067;49.470;10.394;2024-01-15T14:16:40;-0.90;74.60
6078;DHT22;3067;49.470;10.394;2024-01-15T14:19:07;-0.80;74.50
6078;DHT22;3067;49.470;10.394;2024-01-15T14:21:36;-0.90;74.30
6078;DHT22;3067;49.470;10.394;2024-01-15T14:24:04;-0.90;74.20
6078;DHT22;3067;49.470;10.394;2024-01-15T14:26:31;-0.80;74.30
6078;DHT22;3067;49.470;10.394;2024-01-15T14:28:58;-0.80;74.10
6078;DHT22;3067;49.470;10.394;2024-01-15T14:31:25;-0.90;73.90
6078;DHT22;3067;49.470;10.394;2024-01-15T14:33:54;-0.90;74.20
6078;DHT22;3067;49.470;10.394;2024-01-15T14:36:21;-0.90;74.10
6078;DHT22;3067;49.470;10.394;2024-01-15T14:38:50;-0.90;74.20
6078;DHT22;3067;49.470;10.394;2024-01-15T14:41:17;-0.90;74.20
6078;DHT22;3067;49.470;10.394;2024-01-15T14:43:44;-1.00;74.50
6078;DHT22;3067;49.470;10.394;2024-01-15T14:46:12;-1.00;74.60
6078;DHT22;3067;49.470;10.394;2024-01-15T14:48:39;-1.00;74.70
6078;DHT22;3067;49.470;10.394;2024-01-15T14:51:06;-1.00;74.70
6078;DHT22;3067;49.470;10.394;2024-01-15T14:53:34;-1.10;75.30
6078;DHT22;3067;49.470;10.394;2024-01-15T14:56:03;-1.10;76.50
6078;DHT22;3067;49.470;10.394;2024-01-15T14:58:31;-1.20;77.10
6078;DHT22;3067;49.470;10.394;2024-01-15T15:00:58;-1.20;77.50
6078;DHT22;3067;49.470;10.394;2024-01-15T15:03:25;-1.30;77.50
6078;DHT22;3067;49.470;10.394;2024-01-15T15:05:53;-1.20;77.40
6078;DHT22;3067;49.470;10.394;2024-01-15T15:08:20;-1.30;77.60
6078;DHT22;3067;49.470;10.394;2024-01-15T15:10:47;-1.30;77.90
6078;DHT22;3067;49.470;10.394;2024-01-15T15:13:16;-1.30;78.60
6078;DHT22;3067;49.470;10.394;2024-01-15T15:15:43;-1.30;78.90
6078;DHT22;3067;49.470;10.394;2024-01-15T15:18:10;-1.30;78.90
6078;DHT22;3067;49.470;10.394;2024-01-15T15:20:37;-1.30;78.70
6078;DHT22;3067;49.470;10.394;2024-01-15T15:23:04;-1.40;79.00
6078;DHT22;3067;49.470;10.394;2024-01-15T15:25:34;-1.30;80.00
6078;DHT22;3067;49.470;10.394;2024-01-15T15:28:01;-1.40;79.20
6078;DHT22;3067;49.470;10.394;2024-01-15T15:30:31;-1.40;79.40
6078;DHT22;3067;49.470;10.394;2024-01-15T15:32:59;-1.50;79.40
6078;DHT22;3067;49.470;10.394;2024-01-15T15:35:26;-1.40;79.40
6078;DHT22;3067;49.470;10.394;2024-01-15T15:37:53;-1.40;79.00
6078;DHT22;3067;49.470;10.394;2024-01-15T15:40:20;-1.40;78.50
6078;DHT22;3067;49.470;10.394;2024-01-15T15:42:48;-1.40;78.30
6078;DHT22;3067;49.470;10.394;2024-01-15T15:45:15;-1.40;78.00
6078;DHT22;3067;49.470;10.394;2024-01-15T15:47:44;-1.40;77.50